sensor_id;sensor_type;location;lat;lon;timestamp;temperature;humidity
26051;DHT22;13825;53.496;10.020;2023-03-03T00:02:04;0.20;9.70
26051;DHT22;13825;53.496;10.020;2023-03-03T00:04:31;0.40;99.90
26051;DHT22;13825;53.496;10.020;2023-03-03T00:07:00;0.80;99.90
26051;DHT22;13825;53.496;10.020;2023-03-03T00:09:27;0.90;99.90
26051;DHT22;13825;53.496;10.020;2023-03-03T00:11:55;1.00;99.90
26051;DHT22;13825;53.496;10.020;2023-03-03T00:14:28;1.00;99.90
26051;DHT22;13825;53.496;10.020;2023-03-03T00:16:56;1.00;99.90
26051;DHT22;13825;53.496;10.020;2023-03-03T00:19:24;1.10;99.90
26051;DHT22;13825;53.496;10.020;2023-03-03T00:21:57;1.10;99.90
26051;DHT22;13825;53.496;10.020;2023-03-03T00:24:35;1.20;99.90
26051;DHT22;13825;53.496;10.020;2023-03-03T00:27:15;1.20;99.90
26051;DHT22;13825;53.496;10.020;2023-03-03T00:29:45;1.10;99.90
26051;DHT22;13825;53.496;10.020;2023-03-03T00:32:22;1.20;99.90
26051;DHT22;13825;53.496;10.020;2023-03-03T00:34:51;1.30;99.90
26051;DHT22;13825;53.496;10.020;2023-03-03T00:37:31;1.20;99.90
26051;DHT22;13825;53.496;10.020;2023-03-03T00:40:18;1.20;99.90
26051;DHT22;13825;53.496;10.020;2023-03-03T00:42:48;1.30;99.90
26051;DHT22;13825;53.496;10.020;2023-03-03T00:45:26;1.20;99.90
26051;DHT22;13825;53.496;10.020;2023-03-03T00:47:54;1.20;99.90
26051;DHT22;13825;53.496;10.020;2023-03-03T00:50:27;1.10;99.90
26051;DHT22;13825;53.496;10.020;2023-03-03T00:53:00;1.20;99.90
26051;DHT22;13825;53.496;10.020;2023-03-03T00:55:30;1.20;99.90
26051;DHT22;13825;53.496;10.020;2023-03-03T00:57:57;1.30;99.90
26051;DHT22;13825;53.496;10.020;2023-03-03T01:00:24;1.30;99.90
26051;DHT22;13825;53.496;10.020;2023-03-03T01:02:51;1.30;99.90
26051;DHT22;13825;53.496;10.020;2023-03-03T01:05:19;1.20;99.90
26051;DHT22;13825;53.496;10.020;2023-03-03T01:07:46;1.20;99.90
26051;DHT22;13825;53.496;10.020;2023-03-03T01:10:13;1.20;99.90
26051;DHT22;13825;53.496;10.020;2023-03-03T01:12:41;1.10;99.90
26051;DHT22;13825;53.496;10.020;2023-03-03T01:15:10;1.20;99.90
26051;DHT22;13825;53.496;10.020;2023-03-03T01:17:38;1.10;99.90
26051;DHT22;13825;53.496;10.020;2023-03-03T01:20:07;1.10;99.90
26051;DHT22;13825;53.496;10.020;2023-03-03T01:22:34;1.10;99.90
26051;DHT22;13825;53.496;10.020;2023-03-03T01:25:01;1.10;99.90
26051;DHT22;13825;53.496;10.020;2023-03-03T01:27:29;1.10;99.90
26051;DHT22;13825;53.496;10.020;2023-03-03T01:29:58;1.10;99.90
26051;DHT22;13825;53.496;10.020;2023-03-03T01:32:25;1.10;99.90
26051;DHT22;13825;53.496;10.020;2023-03-03T01:34:52;1.10;99.90
26051;DHT22;13825;53.496;10.020;2023-03-03T01:37:19;1.10;99.90
26051;DHT22;13825;53.496;10.020;2023-03-03T01:39:50;1.10;99.90
26051;DHT22;13825;53.496;10.020;2023-03-03T01:42:18;1.10;99.90
26051;DHT22;13825;53.496;10.020;2023-03-03T01:44:44;1.20;99.90
26051;DHT22;13825;53.496;10.020;2023-03-03T01:47:15;1.00;99.90
26051;DHT22;13825;53.496;10.020;2023-03-03T01:49:49;1.00;99.90
26051;DHT22;13825;53.496;10.020;2023-03-03T01:52:22;1.00;99.90
26051;DHT22;13825;53.496;10.020;2023-03-03T01:54:54;1.00;99.90
26051;DHT22;13825;53.496;10.020;2023-03-03T01:57:25;0.90;99.90
26051;DHT22;13825;53.496;10.020;2023-03-03T01:59:54;0.80;99.90
26051;DHT22;13825;53.496;10.020;2023-03-03T02:02:25;0.90;99.90
26051;DHT22;13825;53.496;10.020;2023-03-03T02:04:53;0.80;99.90
26051;DHT22;13825;53.496;10.020;2023-03-03T02:07:21;0.80;99.90
26051;DHT22;13825;53.496;10.020;2023-03-03T02:09:54;0.70;99.90
26051;DHT22;13825;53.496;10.020;2023-03-03T02:12:26;0.70;99.90
26051;DHT22;13825;53.496;10.020;2023-03-03T02:14:54;0.70;99.90
26051;DHT22;13825;53.496;10.020;2023-03-03T02:17:22;0.60;99.90
26051;DHT22;13825;53.496;10.020;2023-03-03T02:19:54;0.50;99.90
26051;DHT22;13825;53.496;10.020;2023-03-03T02:22:30;0.60;99.90
26051;DHT22;13825;53.496;10.020;2023-03-03T02:25:00;0.50;99.90
26051;DHT22;13825;53.496;10.020;2023-03-03T02:27:30;0.50;99.90
26051;DHT22;13825;53.496;10.020;2023-03-03T02:30:08;0.50;99.90
26051;DHT22;13825;53.496;10.020;2023-03-03T02:32:35;0.60;99.90
26051;DHT22;13825;53.496;10.020;2023-03-03T02:35:30;0.60;99.90
26051;DHT22;13825;53.496;10.020;2023-03-03T02:38:03;0.60;99.90
26051;DHT22;13825;53.496;10.020;2023-03-03T02:40:36;0.60;99.90
26051;DHT22;13825;53.496;10.020;2023-03-03T02:43:07;0.50;99.90
26051;DHT22;13825;53.496;10.020;2023-03-03T02:45:41;0.50;99.90
26051;DHT22;13825;53.496;10.020;2023-03-03T02:48:08;0.50;99.90
26051;DHT22;13825;53.496;10.020;2023-03-03T02:50:36;0.50;99.90
26051;DHT22;13825;53.496;10.020;2023-03-03T02:53:03;0.50;99.90
26051;DHT22;13825;53.496;10.020;2023-03-03T02:55:30;0.50;99.90
26051;DHT22;13825;53.496;10.020;2023-03-03T02:57:56;0.60;99.90
26051;DHT22;13825;53.496;10.020;2023-03-03T03:00:25;0.50;99.90
26051;DHT22;13825;53.496;10.020;2023-03-03T03:02:52;0.50;99.90
26051;DHT22;13825;53.496;10.020;2023-03-03T03:05:19;0.50;99.90
26051;DHT22;13825;53.496;10.020;2023-03-03T03:07:46;0.60;99.90
26051;DHT22;13825;53.496;10.020;2023-03-03T03:10:13;0.50;99.90
26051;DHT22;13825;53.496;10.020;2023-03-03T03:12:40;0.50;99.90
26051;DHT22;13825;53.496;10.020;2023-03-03T03:15:07;0.40;99.90
26051;DHT22;13825;53.496;10.020;2023-03-03T03:17:37;0.40;99.90
26051;DHT22;13825;53.496;10.020;2023-03-03T03:20:04;0.40;99.90
26051;DHT22;13825;53.496;10.020;2023-03-03T03:22:32;0.40;99.90
26051;DHT22;13825;53.496;10.020;2023-03-03T03:24:58;0.40;99.90
26051;DHT22;13825;53.496;10.020;2023-03-03T03:27:25;0.30;99.90
26051;DHT22;13825;53.496;10.020;2023-03-03T03:29:52;0.40;99.90
26051;DHT22;13825;53.496;10.020;2023-03-03T03:32:19;0.40;99.90
26051;DHT22;13825;53.496;10.020;2023-03-03T03:34:47;0.40;99.90
26051;DHT22;13825;53.496;10.020;2023-03-03T03:37:14;0.40;99.90
26051;DHT22;13825;53.496;10.020;2023-03-03T03:39:41;0.30;99.90
26051;DHT22;13825;53.496;10.020;2023-03-03T03:42:08;0.40;99.90
26051;DHT22;13825;53.496;10.020;2023-03-03T03:44:36;0.40;99.90
26051;DHT22;13825;53.496;10.020;2023-03-03T03:47:03;0.40;99.90
26051;DHT22;13825;53.496;10.020;2023-03-03T03:49:29;0.40;99.90
26051;DHT22;13825;53.496;10.020;2023-03-03T03:51:58;0.40;99.90
26051;DHT22;13825;53.496;10.020;2023-03-03T03:54:25;0.30;99.90
26051;DHT22;13825;53.496;10.020;2023-03-03T03:56:52;0.40;99.90
26051;DHT22;13825;53.496;10.020;2023-03-03T03:59:19;0.40;99.90
26051;DHT22;13825;53.496;10.020;2023-03-03T04:01:46;0.40;99.90
26051;DHT22;13825;53.496;10.020;2023-03-03T04:04:14;0.30;99.90
26051;DHT22;13825;53.496;10.020;2023-03-03T04:06:41;0.30;99.90
26051;DHT22;13825;53.496;10.020;2023-03-03T04:09:09;0.20;99.90
26051;DHT22;13825;53.496;10.020;2023-03-03T04:11:36;0.40;99.90
26051;DHT22;13825;53.496;10.020;2023-03-03T04:14:03;0.20;99.90
26051;DHT22;13825;53.496;10.020;2023-03-03T04:16:30;0.20;99.90
26051;DHT22;13825;53.496;10.020;2023-03-03T04:18:57;0.30;99.90
26051;DHT22;13825;53.496;10.020;2023-03-03T04:21:24;0.30;99.90
26051;DHT22;13825;53.496;10.020;2023-03-03T04:23:52;0.20;99.90
26051;DHT22;13825;53.496;10.020;2023-03-03T04:26:20;0.20;99.90
26051;DHT22;13825;53.496;10.020;2023-03-03T04:28:47;0.20;99.90
26051;DHT22;13825;53.496;10.020;2023-03-03T04:31:15;0.10;99.90
26051;DHT22;13825;53.496;10.020;2023-03-03T04:33:42;0.10;99.90
26051;DHT22;13825;53.496;10.020;2023-03-03T04:36:09;0.20;99.90
26051;DHT22;13825;53.496;10.020;2023-03-03T04:38:36;0.10;99.90
26051;DHT22;13825;53.496;10.020;2023-03-03T04:41:03;0.00;99.90
26051;DHT22;13825;53.496;10.020;2023-03-03T04:43:32;0.00;99.90
26051;DHT22;13825;53.496;10.020;2023-03-03T04:45:59;0.00;99.90
26051;DHT22;13825;53.496;10.020;2023-03-03T04:48:26;0.10;99.90
26051;DHT22;13825;53.496;10.020;2023-03-03T04:50:52;0.20;99.90
26051;DHT22;13825;53.496;10.020;2023-03-03T04:53:20;0.20;99.90
26051;DHT22;13825;53.496;10.020;2023-03-03T04:55:49;0.00;99.90
26051;DHT22;13825;53.496;10.020;2023-03-03T04:58:16;0.10;99.90
26051;DHT22;13825;53.496;10.020;2023-03-03T05:00:45;0.10;99.90
26051;DHT22;13825;53.496;10.020;2023-03-03T05:03:12;0.10;99.90
26051;DHT22;13825;53.496;10.020;2023-03-03T05:05:39;0.10;99.90
26051;DHT22;13825;53.496;10.020;2023-03-03T05:08:06;0.00;99.90
26051;DHT22;13825;53.496;10.020;2023-03-03T05:13:45;0.20;99.90
26051;DHT22;13825;53.496;10.020;2023-03-03T05:16:13;0.10;99.90
26051;DHT22;13825;53.496;10.020;2023-03-03T05:18:43;0.10;99.90
26051;DHT22;13825;53.496;10.020;2023-03-03T05:21:10;0.10;99.90
26051;DHT22;13825;53.496;10.020;2023-03-03T05:23:37;0.10;99.90
26051;DHT22;13825;53.496;10.020;2023-03-03T05:26:04;0.10;99.90
26051;DHT22;13825;53.496;10.020;2023-03-03T05:28:31;0.00;99.90
26051;DHT22;13825;53.496;10.020;2023-03-03T05:30:58;0.20;99.90
26051;DHT22;13825;53.496;10.020;2023-03-03T05:33:26;0.20;99.90
26051;DHT22;13825;53.496;10.020;2023-03-03T05:35:54;0.30;99.90
26051;DHT22;13825;53.496;10.020;2023-03-03T05:38:22;0.20;99.90
26051;DHT22;13825;53.496;10.020;2023-03-03T05:40:49;0.20;99.90
26051;DHT22;13825;53.496;10.020;2023-03-03T05:43:16;0.10;99.90
26051;DHT22;13825;53.496;10.020;2023-03-03T05:45:44;0.20;99.90
26051;DHT22;13825;53.496;10.020;2023-03-03T05:48:11;0.20;99.90
26051;DHT22;13825;53.496;10.020;2023-03-03T05:50:39;0.20;99.90
26051;DHT22;13825;53.496;10.020;2023-03-03T05:53:06;0.20;99.90
26051;DHT22;13825;53.496;10.020;2023-03-03T05:55:33;0.20;99.90
26051;DHT22;13825;53.496;10.020;2023-03-03T05:58:00;0.20;99.90
26051;DHT22;13825;53.496;10.020;2023-03-03T06:00:30;0.20;99.90
26051;DHT22;13825;53.496;10.020;2023-03-03T06:02:59;0.20;99.90
26051;DHT22;13825;53.496;10.020;2023-03-03T06:05:26;0.20;99.90
26051;DHT22;13825;53.496;10.020;2023-03-03T06:07:54;0.10;99.90
26051;DHT22;13825;53.496;10.020;2023-03-03T06:10:21;0.20;99.90
26051;DHT22;13825;53.496;10.020;2023-03-03T06:12:48;0.10;99.90
26051;DHT22;13825;53.496;10.020;2023-03-03T06:15:15;0.20;99.90
26051;DHT22;13825;53.496;10.020;2023-03-03T06:17:42;0.20;99.90
26051;DHT22;13825;53.496;10.020;2023-03-03T06:20:10;0.10;99.90
26051;DHT22;13825;53.496;10.020;2023-03-03T06:22:37;0.10;99.90
26051;DHT22;13825;53.496;10.020;2023-03-03T06:25:06;0.10;99.90
26051;DHT22;13825;53.496;10.020;2023-03-03T06:27:33;0.10;99.90
26051;DHT22;13825;53.496;10.020;2023-03-03T06:30:01;0.20;99.90
26051;DHT22;13825;53.496;10.020;2023-03-03T06:32:29;0.10;99.90
26051;DHT22;13825;53.496;10.020;2023-03-03T06:34:56;0.20;99.90
26051;DHT22;13825;53.496;10.020;2023-03-03T06:37:22;0.20;99.90
26051;DHT22;13825;53.496;10.020;2023-03-03T06:39:50;0.20;99.90
26051;DHT22;13825;53.496;10.020;2023-03-03T06:42:48;0.20;99.90
26051;DHT22;13825;53.496;10.020;2023-03-03T06:45:21;0.20;99.90
26051;DHT22;13825;53.496;10.020;2023-03-03T06:47:51;0.20;99.90
26051;DHT22;13825;53.496;10.020;2023-03-03T06:50:19;0.20;99.90
26051;DHT22;13825;53.496;10.020;2023-03-03T06:52:46;0.20;99.90
26051;DHT22;13825;53.496;10.020;2023-03-03T06:55:17;0.20;99.90
26051;DHT22;13825;53.496;10.020;2023-03-03T06:57:50;0.20;99.90
26051;DHT22;13825;53.496;10.020;2023-03-03T07:00:34;0.30;99.90
26051;DHT22;13825;53.496;10.020;2023-03-03T07:03:31;0.20;99.90
26051;DHT22;13825;53.496;10.020;2023-03-03T07:06:20;0.30;99.90
26051;DHT22;13825;53.496;10.020;2023-03-03T07:08:49;0.30;99.90
26051;DHT22;13825;53.496;10.020;2023-03-03T07:11:40;0.30;99.90
26051;DHT22;13825;53.496;10.020;2023-03-03T07:14:14;0.20;99.90
26051;DHT22;13825;53.496;10.020;2023-03-03T07:16:45;0.30;99.90
26051;DHT22;13825;53.496;10.020;2023-03-03T07:19:22;0.30;99.90
26051;DHT22;13825;53.496;10.020;2023-03-03T07:22:07;0.40;99.90
26051;DHT22;13825;53.496;10.020;2023-03-03T07:24:53;0.40;99.90
26051;DHT22;13825;53.496;10.020;2023-03-03T07:27:23;0.40;99.90
26051;DHT22;13825;53.496;10.020;2023-03-03T07:29:53;0.50;99.90
26051;DHT22;13825;53.496;10.020;2023-03-03T07:32:36;0.60;99.90
26051;DHT22;13825;53.496;10.020;2023-03-03T07:35:35;0.60;99.90
26051;DHT22;13825;53.496;10.020;2023-03-03T07:38:33;0.70;99.90
26051;DHT22;13825;53.496;10.020;2023-03-03T07:41:13;0.70;99.90
26051;DHT22;13825;53.496;10.020;2023-03-03T07:43:47;0.80;99.90
26051;DHT22;13825;53.496;10.020;2023-03-03T07:46:27;0.70;99.90
26051;DHT22;13825;53.496;10.020;2023-03-03T07:48:57;0.70;99.90
26051;DHT22;13825;53.496;10.020;2023-03-03T07:51:26;0.70;99.90
26051;DHT22;13825;53.496;10.020;2023-03-03T07:53:59;0.90;99.90
26051;DHT22;13825;53.496;10.020;2023-03-03T07:56:39;0.80;99.90
26051;DHT22;13825;53.496;10.020;2023-03-03T07:59:21;0.90;99.90
26051;DHT22;13825;53.496;10.020;2023-03-03T08:01:58;0.90;99.90
26051;DHT22;13825;53.496;10.020;2023-03-03T08:04:31;1.00;99.90
26051;DHT22;13825;53.496;10.020;2023-03-03T08:07:02;0.90;99.90
26051;DHT22;13825;53.496;10.020;2023-03-03T08:09:56;1.00;99.90
26051;DHT22;13825;53.496;10.020;2023-03-03T08:19:41;1.00;99.90
26051;DHT22;13825;53.496;10.020;2023-03-03T08:22:40;1.00;99.90
26051;DHT22;13825;53.496;10.020;2023-03-03T08:31:24;1.00;99.90
26051;DHT22;13825;53.496;10.020;2023-03-03T08:34:19;0.90;99.90
26051;DHT22;13825;53.496;10.020;2023-03-03T08:37:32;1.00;99.90
26051;DHT22;13825;53.496;10.020;2023-03-03T08:40:36;1.00;99.90
26051;DHT22;13825;53.496;10.020;2023-03-03T08:43:34;0.90;99.90
26051;DHT22;13825;53.496;10.020;2023-03-03T08:46:26;0.90;99.90
26051;DHT22;13825;53.496;10.020;2023-03-03T08:49:32;1.00;99.90
26051;DHT22;13825;53.496;10.020;2023-03-03T08:52:49;1.10;99.90
26051;DHT22;13825;53.496;10.020;2023-03-03T08:56:45;1.10;99.90
26051;DHT22;13825;53.496;10.020;2023-03-03T08:59:04;1.40;99.90
26051;DHT22;13825;53.496;10.020;2023-03-03T09:01:59;1.40;99.90
26051;DHT22;13825;53.496;10.020;2023-03-03T09:04:46;1.40;99.90
26051;DHT22;13825;53.496;10.020;2023-03-03T09:07:53;1.40;99.90
26051;DHT22;13825;53.496;10.020;2023-03-03T09:14:03;1.60;99.90
26051;DHT22;13825;53.496;10.020;2023-03-03T09:17:01;1.70;99.90
26051;DHT22;13825;53.496;10.020;2023-03-03T09:20:03;1.60;99.90
26051;DHT22;13825;53.496;10.020;2023-03-03T09:29:24;1.80;1.00
26051;DHT22;13825;53.496;10.020;2023-03-03T09:32:01;1.80;99.90
26051;DHT22;13825;53.496;10.020;2023-03-03T09:34:54;2.10;1.00
26051;DHT22;13825;53.496;10.020;2023-03-03T09:37:59;2.00;99.90
26051;DHT22;13825;53.496;10.020;2023-03-03T09:41:09;2.00;99.90
26051;DHT22;13825;53.496;10.020;2023-03-03T09:47:36;2.00;99.90
26051;DHT22;13825;53.496;10.020;2023-03-03T09:50:14;1.90;99.90
26051;DHT22;13825;53.496;10.020;2023-03-03T09:52:50;2.10;99.90
26051;DHT22;13825;53.496;10.020;2023-03-03T09:55:42;2.20;99.90
26051;DHT22;13825;53.496;10.020;2023-03-03T09:58:49;2.00;99.90
26051;DHT22;13825;53.496;10.020;2023-03-03T10:05:23;1.90;99.90
26051;DHT22;13825;53.496;10.020;2023-03-03T10:11:18;2.00;99.90
26051;DHT22;13825;53.496;10.020;2023-03-03T10:13:59;2.00;99.90
26051;DHT22;13825;53.496;10.020;2023-03-03T10:19:37;2.10;99.90
26051;DHT22;13825;53.496;10.020;2023-03-03T10:22:17;2.10;99.90
26051;DHT22;13825;53.496;10.020;2023-03-03T10:24:54;2.10;99.90
26051;DHT22;13825;53.496;10.020;2023-03-03T10:27:38;2.20;99.90
26051;DHT22;13825;53.496;10.020;2023-03-03T10:30:16;2.20;99.90
26051;DHT22;13825;53.496;10.020;2023-03-03T10:32:52;2.30;99.90
26051;DHT22;13825;53.496;10.020;2023-03-03T10:38:45;2.60;99.90
26051;DHT22;13825;53.496;10.020;2023-03-03T10:41:42;2.70;99.90
26051;DHT22;13825;53.496;10.020;2023-03-03T10:47:38;3.00;99.90
26051;DHT22;13825;53.496;10.020;2023-03-03T10:50:15;3.20;99.90
26051;DHT22;13825;53.496;10.020;2023-03-03T10:52:49;3.50;99.90
26051;DHT22;13825;53.496;10.020;2023-03-03T10:55:29;3.70;99.90
26051;DHT22;13825;53.496;10.020;2023-03-03T10:58:08;3.70;99.90
26051;DHT22;13825;53.496;10.020;2023-03-03T11:00:41;3.70;99.90
26051;DHT22;13825;53.496;10.020;2023-03-03T11:03:42;3.70;99.90
26051;DHT22;13825;53.496;10.020;2023-03-03T11:06:15;3.80;99.90
26051;DHT22;13825;53.496;10.020;2023-03-03T11:08:46;3.70;99.90
26051;DHT22;13825;53.496;10.020;2023-03-03T11:11:17;3.60;99.90
26051;DHT22;13825;53.496;10.020;2023-03-03T11:13:50;3.70;99.90
26051;DHT22;13825;53.496;10.020;2023-03-03T11:16:36;3.60;99.90
26051;DHT22;13825;53.496;10.020;2023-03-03T11:19:20;3.60;99.90
26051;DHT22;13825;53.496;10.020;2023-03-03T11:22:02;3.60;99.90
26051;DHT22;13825;53.496;10.020;2023-03-03T11:24:39;3.60;99.90
26051;DHT22;13825;53.496;10.020;2023-03-03T11:30:12;3.70;99.90
26051;DHT22;13825;53.496;10.020;2023-03-03T11:32:49;3.60;99.90
26051;DHT22;13825;53.496;10.020;2023-03-03T11:35:22;3.70;99.90
26051;DHT22;13825;53.496;10.020;2023-03-03T11:38:31;3.70;99.90
26051;DHT22;13825;53.496;10.020;2023-03-03T11:41:03;3.70;99.90
26051;DHT22;13825;53.496;10.020;2023-03-03T11:43:36;3.90;99.90
26051;DHT22;13825;53.496;10.020;2023-03-03T11:46:07;4.10;99.90
26051;DHT22;13825;53.496;10.020;2023-03-03T11:48:42;4.20;99.90
26051;DHT22;13825;53.496;10.020;2023-03-03T11:51:14;4.20;99.90
26051;DHT22;13825;53.496;10.020;2023-03-03T11:53:56;4.50;99.90
26051;DHT22;13825;53.496;10.020;2023-03-03T11:56:26;4.60;99.90
26051;DHT22;13825;53.496;10.020;2023-03-03T11:59:06;4.80;99.90
26051;DHT22;13825;53.496;10.020;2023-03-03T12:01:43;5.00;99.90
26051;DHT22;13825;53.496;10.020;2023-03-03T12:04:14;5.20;99.90
26051;DHT22;13825;53.496;10.020;2023-03-03T12:06:56;5.00;99.90
26051;DHT22;13825;53.496;10.020;2023-03-03T12:09:38;4.90;99.90
26051;DHT22;13825;53.496;10.020;2023-03-03T12:12:13;4.80;99.90
26051;DHT22;13825;53.496;10.020;2023-03-03T12:14:53;4.80;99.90
26051;DHT22;13825;53.496;10.020;2023-03-03T12:20:34;5.10;99.90
26051;DHT22;13825;53.496;10.020;2023-03-03T12:23:14;5.10;99.90
26051;DHT22;13825;53.496;10.020;2023-03-03T12:25:45;5.20;99.90
26051;DHT22;13825;53.496;10.020;2023-03-03T12:28:17;5.20;99.90
26051;DHT22;13825;53.496;10.020;2023-03-03T12:31:00;5.40;99.90
26051;DHT22;13825;53.496;10.020;2023-03-03T12:33:43;5.60;99.90
26051;DHT22;13825;53.496;10.020;2023-03-03T12:36:31;6.00;99.90
26051;DHT22;13825;53.496;10.020;2023-03-03T12:39:06;6.30;99.90
26051;DHT22;13825;53.496;10.020;2023-03-03T12:41:41;6.40;99.90
26051;DHT22;13825;53.496;10.020;2023-03-03T12:44:17;6.50;99.90
26051;DHT22;13825;53.496;10.020;2023-03-03T12:46:48;6.70;99.90
26051;DHT22;13825;53.496;10.020;2023-03-03T12:49:18;6.50;99.90
26051;DHT22;13825;53.496;10.020;2023-03-03T12:51:54;6.30;99.90
26051;DHT22;13825;53.496;10.020;2023-03-03T12:54:39;6.40;99.90
26051;DHT22;13825;53.496;10.020;2023-03-03T12:57:18;6.10;99.90
26051;DHT22;13825;53.496;10.020;2023-03-03T12:59:59;6.30;99.90
26051;DHT22;13825;53.496;10.020;2023-03-03T13:02:39;6.50;99.90
26051;DHT22;13825;53.496;10.020;2023-03-03T13:05:19;6.40;99.90
26051;DHT22;13825;53.496;10.020;2023-03-03T13:07:56;6.20;99.90
26051;DHT22;13825;53.496;10.020;2023-03-03T13:10:34;6.20;99.90
26051;DHT22;13825;53.496;10.020;2023-03-03T13:13:06;6.40;99.90
26051;DHT22;13825;53.496;10.020;2023-03-03T13:15:38;6.50;99.90
26051;DHT22;13825;53.496;10.020;2023-03-03T13:21:35;6.70;99.90
26051;DHT22;13825;53.496;10.020;2023-03-03T13:24:15;6.50;99.90
26051;DHT22;13825;53.496;10.020;2023-03-03T13:26:48;6.50;99.90
26051;DHT22;13825;53.496;10.020;2023-03-03T13:29:24;6.60;99.90
26051;DHT22;13825;53.496;10.020;2023-03-03T13:31:55;6.70;99.90
26051;DHT22;13825;53.496;10.020;2023-03-03T13:34:36;6.60;99.90
26051;DHT22;13825;53.496;10.020;2023-03-03T13:37:11;6.50;99.90
26051;DHT22;13825;53.496;10.020;2023-03-03T13:39:49;6.50;99.90
26051;DHT22;13825;53.496;10.020;2023-03-03T13:42:35;6.40;99.90
26051;DHT22;13825;53.496;10.020;2023-03-03T13:45:12;6.50;99.90
26051;DHT22;13825;53.496;10.020;2023-03-03T13:47:47;6.40;99.90
26051;DHT22;13825;53.496;10.020;2023-03-03T13:50:22;6.50;99.90
26051;DHT22;13825;53.496;10.020;2023-03-03T13:53:16;6.40;99.90
26051;DHT22;13825;53.496;10.020;2023-03-03T13:55:52;6.50;99.90
26051;DHT22;13825;53.496;10.020;2023-03-03T13:58:36;6.50;99.90
26051;DHT22;13825;53.496;10.020;2023-03-03T14:01:16;6.60;99.90
26051;DHT22;13825;53.496;10.020;2023-03-03T14:06:22;6.40;99.90
26051;DHT22;13825;53.496;10.020;2023-03-03T14:09:13;6.40;99.90
26051;DHT22;13825;53.496;10.020;2023-03-03T14:11:48;6.40;99.90
26051;DHT22;13825;53.496;10.020;2023-03-03T14:16:59;6.40;99.90
26051;DHT22;13825;53.496;10.020;2023-03-03T14:19:31;6.20;99.90
26051;DHT22;13825;53.496;10.020;2023-03-03T14:22:11;6.30;99.90
26051;DHT22;13825;53.496;10.020;2023-03-03T14:27:24;6.30;99.90
26051;DHT22;13825;53.496;10.020;2023-03-03T14:37:45;6.20;99.90
26051;DHT22;13825;53.496;10.020;2023-03-03T14:40:18;6.30;99.90
26051;DHT22;13825;53.496;10.020;2023-03-03T14:45:30;6.30;99.90
26051;DHT22;13825;53.496;10.020;2023-03-03T14:47:58;6.40;99.90
26051;DHT22;13825;53.496;10.020;2023-03-03T14:50:45;6.50;99.90
26051;DHT22;13825;53.496;10.020;2023-03-03T14:53:40;6.40;99.90
26051;DHT22;13825;53.496;10.020;2023-03-03T14:59:16;6.30;99.90
26051;DHT22;13825;53.496;10.020;2023-03-03T15:01:50;6.20;99.90
26051;DHT22;13825;53.496;10.020;2023-03-03T15:04:30;6.30;99.90
26051;DHT22;13825;53.496;10.020;2023-03-03T15:06:57;6.10;99.90
26051;DHT22;13825;53.496;10.020;2023-03-03T15:09:36;6.10;99.90
26051;DHT22;13825;53.496;10.020;2023-03-03T15:12:18;6.30;99.90
26051;DHT22;13825;53.496;10.020;2023-03-03T15:14:46;6.40;99.90
26051;DHT22;13825;53.496;10.020;2023-03-03T15:17:26;6.20;99.90
26051;DHT22;13825;53.496;10.020;2023-03-03T15:20:00;6.20;99.90
26051;DHT22;13825;53.496;10.020;2023-03-03T15:22:45;6.10;99.90
26051;DHT22;13825;53.496;10.020;2023-03-03T15:25:32;6.10;99.90
26051;DHT22;13825;53.496;10.020;2023-03-03T15:28:14;6.00;99.90
26051;DHT22;13825;53.496;10.020;2023-03-03T15:30:56;5.90;99.90
26051;DHT22;13825;53.496;10.020;2023-03-03T15:33:33;6.00;99.90
26051;DHT22;13825;53.496;10.020;2023-03-03T15:36:07;5.90;99.90
26051;DHT22;13825;53.496;10.020;2023-03-03T15:39:02;6.00;99.90
26051;DHT22;13825;53.496;10.020;2023-03-03T15:48:50;5.80;99.90
26051;DHT22;13825;53.496;10.020;2023-03-03T17:26:26;5.20;99.90
26051;DHT22;13825;53.496;10.020;2023-03-03T17:32:52;5.10;99.90
26051;DHT22;13825;53.496;10.020;2023-03-03T20:23:56;4.40;99.90
26051;DHT22;13825;53.496;10.020;2023-03-03T20:27:38;4.40;99.90
26051;DHT22;13825;53.496;10.020;2023-03-03T20:30:56;4.40;99.90
26051;DHT22;13825;53.496;10.020;2023-03-03T20:34:10;4.40;99.90
26051;DHT22;13825;53.496;10.020;2023-03-03T20:37:16;4.50;99.90
26051;DHT22;13825;53.496;10.020;2023-03-03T20:40:38;4.50;99.90
26051;DHT22;13825;53.496;10.020;2023-03-03T20:47:40;4.50;99.90
26051;DHT22;13825;53.496;10.020;2023-03-03T20:54:27;4.60;99.90
26051;DHT22;13825;53.496;10.020;2023-03-03T21:00:58;4.70;99.90
26051;DHT22;13825;53.496;10.020;2023-03-03T21:04:21;4.60;99.90
26051;DHT22;13825;53.496;10.020;2023-03-03T21:07:17;4.70;99.90
26051;DHT22;13825;53.496;10.020;2023-03-03T21:10:42;4.70;99.90
26051;DHT22;13825;53.496;10.020;2023-03-03T21:13:59;4.90;99.90
26051;DHT22;13825;53.496;10.020;2023-03-03T21:16:58;4.80;99.90
26051;DHT22;13825;53.496;10.020;2023-03-03T21:19:45;4.80;99.90
26051;DHT22;13825;53.496;10.020;2023-03-03T21:26:01;4.80;99.90
26051;DHT22;13825;53.496;10.020;2023-03-03T21:41:31;4.90;99.90
26051;DHT22;13825;53.496;10.020;2023-03-03T21:42:32;5.00;99.90
26051;DHT22;13825;53.496;10.020;2023-03-03T22:17:43;5.00;99.90
26051;DHT22;13825;53.496;10.020;2023-03-03T22:20:11;4.90;99.90
26051;DHT22;13825;53.496;10.020;2023-03-03T22:22:39;4.90;99.90
26051;DHT22;13825;53.496;10.020;2023-03-03T22:25:08;4.90;99.90
26051;DHT22;13825;53.496;10.020;2023-03-03T22:27:35;4.90;99.90
26051;DHT22;13825;53.496;10.020;2023-03-03T22:30:03;4.90;99.90
26051;DHT22;13825;53.496;10.020;2023-03-03T22:32:31;4.90;99.90
26051;DHT22;13825;53.496;10.020;2023-03-03T22:34:59;4.80;99.90
26051;DHT22;13825;53.496;10.020;2023-03-03T22:37:26;4.90;99.90
26051;DHT22;13825;53.496;10.020;2023-03-03T22:39:53;4.90;99.90
26051;DHT22;13825;53.496;10.020;2023-03-03T22:42:22;4.80;99.90
26051;DHT22;13825;53.496;10.020;2023-03-03T22:44:50;4.90;99.90
26051;DHT22;13825;53.496;10.020;2023-03-03T22:47:17;4.80;99.90
26051;DHT22;13825;53.496;10.020;2023-03-03T22:49:44;4.80;99.90
26051;DHT22;13825;53.496;10.020;2023-03-03T22:52:15;4.90;99.90
26051;DHT22;13825;53.496;10.020;2023-03-03T22:54:42;4.90;99.90
26051;DHT22;13825;53.496;10.020;2023-03-03T22:57:12;4.90;99.90
26051;DHT22;13825;53.496;10.020;2023-03-03T22:59:38;4.90;99.90
26051;DHT22;13825;53.496;10.020;2023-03-03T23:02:05;4.90;99.90
26051;DHT22;13825;53.496;10.020;2023-03-03T23:04:32;4.90;99.90
26051;DHT22;13825;53.496;10.020;2023-03-03T23:07:02;4.90;99.90
26051;DHT22;13825;53.496;10.020;2023-03-03T23:09:31;4.90;99.90
26051;DHT22;13825;53.496;10.020;2023-03-03T23:11:59;4.90;99.90
26051;DHT22;13825;53.496;10.020;2023-03-03T23:14:26;4.90;99.90
26051;DHT22;13825;53.496;10.020;2023-03-03T23:16:53;4.90;99.90